sensor_id;sensor_type;location;lat;lon;timestamp;pressure;altitude;pressure_sealevel;temperature;humidity
48041;BME280;33815;48.386;11.738;2023-02-17T00:01:28;97406.63;;;3.11;100.00
48041;BME280;33815;48.386;11.738;2023-02-17T00:03:54;97409.13;;;3.12;100.00
48041;BME280;33815;48.386;11.738;2023-02-17T00:06:22;97411.59;;;3.14;100.00
48041;BME280;33815;48.386;11.738;2023-02-17T00:08:48;97398.81;;;3.12;100.00
48041;BME280;33815;48.386;11.738;2023-02-17T00:11:14;97401.00;;;3.20;100.00
48041;BME280;33815;48.386;11.738;2023-02-17T00:13:40;97400.47;;;3.29;100.00
48041;BME280;33815;48.386;11.738;2023-02-17T00:16:13;97399.31;;;3.19;100.00
48041;BME280;33815;48.386;11.738;2023-02-17T00:18:40;97401.97;;;3.17;100.00
48041;BME280;33815;48.386;11.738;2023-02-17T00:21:17;97397.66;;;3.18;100.00
48041;BME280;33815;48.386;11.738;2023-02-17T00:23:43;97396.91;;;3.16;100.00
48041;BME280;33815;48.386;11.738;2023-02-17T00:26:09;97395.84;;;3.20;100.00
48041;BME280;33815;48.386;11.738;2023-02-17T00:28:34;97395.75;;;3.21;100.00
48041;BME280;33815;48.386;11.738;2023-02-17T00:31:14;97395.25;;;3.15;100.00
48041;BME280;33815;48.386;11.738;2023-02-17T00:33:40;97390.66;;;3.04;100.00
48041;BME280;33815;48.386;11.738;2023-02-17T00:36:09;97398.63;;;3.15;100.00
48041;BME280;33815;48.386;11.738;2023-02-17T00:38:34;97383.72;;;3.06;100.00
48041;BME280;33815;48.386;11.738;2023-02-17T00:40:59;97397.56;;;3.19;100.00
48041;BME280;33815;48.386;11.738;2023-02-17T00:43:25;97379.38;;;3.06;100.00
48041;BME280;33815;48.386;11.738;2023-02-17T00:45:50;97388.50;;;3.12;100.00
48041;BME280;33815;48.386;11.738;2023-02-17T00:48:15;97392.41;;;3.19;100.00
48041;BME280;33815;48.386;11.738;2023-02-17T00:50:41;97391.50;;;3.20;100.00
48041;BME280;33815;48.386;11.738;2023-02-17T00:53:06;97374.91;;;3.10;100.00
48041;BME280;33815;48.386;11.738;2023-02-17T00:55:31;97388.34;;;3.15;100.00
48041;BME280;33815;48.386;11.738;2023-02-17T00:57:56;97393.81;;;3.25;100.00
48041;BME280;33815;48.386;11.738;2023-02-17T01:00:22;97382.50;;;3.28;100.00
48041;BME280;33815;48.386;11.738;2023-02-17T01:02:47;97373.66;;;3.17;100.00
48041;BME280;33815;48.386;11.738;2023-02-17T01:05:12;97375.13;;;3.21;100.00
48041;BME280;33815;48.386;11.738;2023-02-17T01:07:38;97381.59;;;3.29;100.00
48041;BME280;33815;48.386;11.738;2023-02-17T01:10:04;97387.00;;;3.40;100.00
48041;BME280;33815;48.386;11.738;2023-02-17T01:12:30;97384.81;;;3.48;100.00
48041;BME280;33815;48.386;11.738;2023-02-17T01:14:55;97380.22;;;3.53;100.00
48041;BME280;33815;48.386;11.738;2023-02-17T01:17:20;97378.00;;;3.47;100.00
48041;BME280;33815;48.386;11.738;2023-02-17T01:19:46;97365.06;;;3.33;100.00
48041;BME280;33815;48.386;11.738;2023-02-17T01:22:11;97384.59;;;3.37;100.00
48041;BME280;33815;48.386;11.738;2023-02-17T01:24:37;97369.63;;;3.28;100.00
48041;BME280;33815;48.386;11.738;2023-02-17T01:27:03;97370.72;;;3.23;100.00
48041;BME280;33815;48.386;11.738;2023-02-17T01:29:28;97342.97;;;3.13;100.00
48041;BME280;33815;48.386;11.738;2023-02-17T01:31:53;97366.25;;;3.27;100.00
48041;BME280;33815;48.386;11.738;2023-02-17T01:34:18;97374.84;;;3.42;100.00
48041;BME280;33815;48.386;11.738;2023-02-17T01:36:44;97375.41;;;3.47;100.00
48041;BME280;33815;48.386;11.738;2023-02-17T01:39:12;97365.69;;;3.52;100.00
48041;BME280;33815;48.386;11.738;2023-02-17T01:41:37;97362.19;;;3.53;100.00
48041;BME280;33815;48.386;11.738;2023-02-17T01:44:15;97378.03;;;3.62;100.00
48041;BME280;33815;48.386;11.738;2023-02-17T01:46:42;97373.81;;;3.60;100.00
48041;BME280;33815;48.386;11.738;2023-02-17T01:49:14;97374.72;;;3.59;100.00
48041;BME280;33815;48.386;11.738;2023-02-17T01:51:42;97359.09;;;3.63;100.00
48041;BME280;33815;48.386;11.738;2023-02-17T01:54:20;97361.66;;;3.63;100.00
48041;BME280;33815;48.386;11.738;2023-02-17T01:56:50;97359.91;;;3.63;100.00
48041;BME280;33815;48.386;11.738;2023-02-17T01:59:19;97357.19;;;3.66;100.00
48041;BME280;33815;48.386;11.738;2023-02-17T02:01:46;97350.34;;;3.65;100.00
48041;BME280;33815;48.386;11.738;2023-02-17T02:04:16;97341.34;;;3.72;100.00
48041;BME280;33815;48.386;11.738;2023-02-17T02:06:43;97348.00;;;3.91;100.00
48041;BME280;33815;48.386;11.738;2023-02-17T02:09:26;97351.53;;;4.04;100.00
48041;BME280;33815;48.386;11.738;2023-02-17T02:11:53;97350.78;;;4.02;100.00
48041;BME280;33815;48.386;11.738;2023-02-17T02:14:20;97354.94;;;4.05;100.00
48041;BME280;33815;48.386;11.738;2023-02-17T02:16:54;97358.81;;;4.12;100.00
48041;BME280;33815;48.386;11.738;2023-02-17T02:25:42;97346.66;;;4.28;100.00
48041;BME280;33815;48.386;11.738;2023-02-17T02:28:16;97350.81;;;4.31;100.00
48041;BME280;33815;48.386;11.738;2023-02-17T02:33:39;97321.78;;;4.42;100.00
48041;BME280;33815;48.386;11.738;2023-02-17T02:36:19;97338.59;;;4.76;98.14
48041;BME280;33815;48.386;11.738;2023-02-17T02:38:57;97332.00;;;5.00;96.40
48041;BME280;33815;48.386;11.738;2023-02-17T02:41:28;97314.28;;;4.93;94.92
48041;BME280;33815;48.386;11.738;2023-02-17T02:43:54;97331.25;;;4.97;94.80
48041;BME280;33815;48.386;11.738;2023-02-17T02:46:20;97329.69;;;4.95;95.11
48041;BME280;33815;48.386;11.738;2023-02-17T02:48:45;97330.06;;;4.89;95.21
48041;BME280;33815;48.386;11.738;2023-02-17T02:51:26;97318.34;;;4.97;94.25
48041;BME280;33815;48.386;11.738;2023-02-17T03:05:15;97309.44;;;5.82;88.70
48041;BME280;33815;48.386;11.738;2023-02-17T03:07:52;97305.00;;;5.84;88.82
48041;BME280;33815;48.386;11.738;2023-02-17T03:10:19;97309.84;;;5.89;88.70
48041;BME280;33815;48.386;11.738;2023-02-17T03:12:44;97302.31;;;5.86;89.13
48041;BME280;33815;48.386;11.738;2023-02-17T03:15:17;97299.50;;;5.89;88.96
48041;BME280;33815;48.386;11.738;2023-02-17T03:17:42;97288.03;;;5.80;89.38
48041;BME280;33815;48.386;11.738;2023-02-17T03:20:08;97297.56;;;5.79;89.47
48041;BME280;33815;48.386;11.738;2023-02-17T03:22:37;97294.44;;;5.87;88.38
48041;BME280;33815;48.386;11.738;2023-02-17T03:25:05;97293.84;;;5.83;89.56
48041;BME280;33815;48.386;11.738;2023-02-17T03:27:31;97283.28;;;5.87;88.91
48041;BME280;33815;48.386;11.738;2023-02-17T03:29:56;97292.91;;;6.10;87.84
48041;BME280;33815;48.386;11.738;2023-02-17T03:32:21;97285.22;;;6.34;87.01
48041;BME280;33815;48.386;11.738;2023-02-17T03:34:47;97281.28;;;6.42;85.74
48041;BME280;33815;48.386;11.738;2023-02-17T03:37:12;97279.50;;;6.55;84.21
48041;BME280;33815;48.386;11.738;2023-02-17T03:39:37;97287.28;;;6.79;83.83
48041;BME280;33815;48.386;11.738;2023-02-17T03:42:03;97290.91;;;6.77;84.27
48041;BME280;33815;48.386;11.738;2023-02-17T03:44:28;97287.06;;;6.82;82.75
48041;BME280;33815;48.386;11.738;2023-02-17T03:46:53;97287.75;;;6.84;82.92
48041;BME280;33815;48.386;11.738;2023-02-17T03:49:18;97279.28;;;6.82;82.53
48041;BME280;33815;48.386;11.738;2023-02-17T03:51:44;97288.09;;;6.80;82.86
48041;BME280;33815;48.386;11.738;2023-02-17T03:54:09;97279.56;;;6.91;81.31
48041;BME280;33815;48.386;11.738;2023-02-17T03:56:34;97275.13;;;7.04;80.70
48041;BME280;33815;48.386;11.738;2023-02-17T03:59:00;97272.47;;;7.06;80.03
48041;BME280;33815;48.386;11.738;2023-02-17T04:01:25;97273.06;;;7.09;79.84
48041;BME280;33815;48.386;11.738;2023-02-17T04:03:50;97273.06;;;7.09;79.25
48041;BME280;33815;48.386;11.738;2023-02-17T04:06:16;97274.81;;;7.09;79.29
48041;BME280;33815;48.386;11.738;2023-02-17T04:08:41;97244.66;;;7.08;78.98
48041;BME280;33815;48.386;11.738;2023-02-17T04:11:08;97256.97;;;7.17;78.80
48041;BME280;33815;48.386;11.738;2023-02-17T04:13:33;97256.00;;;7.18;77.40
48041;BME280;33815;48.386;11.738;2023-02-17T04:15:59;97249.84;;;7.08;77.35
48041;BME280;33815;48.386;11.738;2023-02-17T04:18:29;97257.50;;;7.09;77.21
48041;BME280;33815;48.386;11.738;2023-02-17T04:20:54;97263.84;;;7.05;77.31
48041;BME280;33815;48.386;11.738;2023-02-17T04:23:20;97250.22;;;7.14;76.03
48041;BME280;33815;48.386;11.738;2023-02-17T04:25:45;97258.44;;;7.08;75.35
48041;BME280;33815;48.386;11.738;2023-02-17T04:28:11;97269.75;;;7.07;76.40
48041;BME280;33815;48.386;11.738;2023-02-17T04:30:38;97248.88;;;6.97;74.55
48041;BME280;33815;48.386;11.738;2023-02-17T04:33:03;97262.19;;;7.28;71.65
48041;BME280;33815;48.386;11.738;2023-02-17T04:35:29;97253.16;;;7.45;71.65
48041;BME280;33815;48.386;11.738;2023-02-17T04:37:54;97256.28;;;7.37;71.03
48041;BME280;33815;48.386;11.738;2023-02-17T04:40:20;97259.94;;;7.35;71.24
48041;BME280;33815;48.386;11.738;2023-02-17T04:42:45;97267.78;;;7.46;70.55
48041;BME280;33815;48.386;11.738;2023-02-17T04:45:11;97258.72;;;7.52;70.22
48041;BME280;33815;48.386;11.738;2023-02-17T04:47:36;97251.41;;;7.57;69.16
48041;BME280;33815;48.386;11.738;2023-02-17T04:50:02;97244.91;;;7.63;68.56
48041;BME280;33815;48.386;11.738;2023-02-17T04:52:28;97256.16;;;7.63;69.63
48041;BME280;33815;48.386;11.738;2023-02-17T04:54:53;97253.66;;;7.62;69.80
48041;BME280;33815;48.386;11.738;2023-02-17T04:57:18;97243.16;;;7.63;69.13
48041;BME280;33815;48.386;11.738;2023-02-17T04:59:43;97242.81;;;7.68;69.12
48041;BME280;33815;48.386;11.738;2023-02-17T05:02:10;97249.06;;;7.77;67.77
48041;BME280;33815;48.386;11.738;2023-02-17T05:04:35;97248.25;;;7.76;68.42
48041;BME280;33815;48.386;11.738;2023-02-17T05:07:01;97248.16;;;7.89;67.91
48041;BME280;33815;48.386;11.738;2023-02-17T05:09:26;97241.53;;;7.74;68.84
48041;BME280;33815;48.386;11.738;2023-02-17T05:11:52;97239.66;;;7.87;68.39
48041;BME280;33815;48.386;11.738;2023-02-17T05:14:17;97234.44;;;7.76;69.20
48041;BME280;33815;48.386;11.738;2023-02-17T05:16:42;97237.63;;;7.68;68.76
48041;BME280;33815;48.386;11.738;2023-02-17T05:19:07;97229.59;;;7.82;67.20
48041;BME280;33815;48.386;11.738;2023-02-17T05:21:33;97241.78;;;7.93;67.47
48041;BME280;33815;48.386;11.738;2023-02-17T05:23:58;97248.38;;;7.97;67.73
48041;BME280;33815;48.386;11.738;2023-02-17T05:26:23;97248.50;;;7.96;67.84
48041;BME280;33815;48.386;11.738;2023-02-17T05:28:49;97243.88;;;7.88;68.31
48041;BME280;33815;48.386;11.738;2023-02-17T05:31:14;97250.03;;;7.87;67.25
48041;BME280;33815;48.386;11.738;2023-02-17T05:33:40;97232.69;;;7.76;67.83
48041;BME280;33815;48.386;11.738;2023-02-17T05:36:07;97245.53;;;7.89;68.03
48041;BME280;33815;48.386;11.738;2023-02-17T05:38:33;97252.59;;;7.76;68.38
48041;BME280;33815;48.386;11.738;2023-02-17T05:40:59;97230.22;;;7.75;67.79
48041;BME280;33815;48.386;11.738;2023-02-17T05:43:24;97241.03;;;7.80;68.18
48041;BME280;33815;48.386;11.738;2023-02-17T05:45:49;97244.00;;;7.86;68.56
48041;BME280;33815;48.386;11.738;2023-02-17T05:48:15;97253.09;;;7.81;68.77
48041;BME280;33815;48.386;11.738;2023-02-17T05:50:40;97244.50;;;7.92;68.65
48041;BME280;33815;48.386;11.738;2023-02-17T05:53:06;97246.00;;;7.71;69.62
48041;BME280;33815;48.386;11.738;2023-02-17T05:55:31;97256.28;;;7.73;69.93
48041;BME280;33815;48.386;11.738;2023-02-17T05:57:56;97249.56;;;7.82;69.20
48041;BME280;33815;48.386;11.738;2023-02-17T06:00:21;97238.81;;;7.98;68.76
48041;BME280;33815;48.386;11.738;2023-02-17T06:02:47;97259.13;;;7.93;69.55
48041;BME280;33815;48.386;11.738;2023-02-17T06:05:12;97258.09;;;8.06;69.09
48041;BME280;33815;48.386;11.738;2023-02-17T06:07:37;97260.06;;;8.14;69.40
48041;BME280;33815;48.386;11.738;2023-02-17T06:10:03;97264.66;;;8.11;69.88
48041;BME280;33815;48.386;11.738;2023-02-17T06:12:29;97253.56;;;7.97;70.03
48041;BME280;33815;48.386;11.738;2023-02-17T06:14:54;97262.19;;;8.09;69.86
48041;BME280;33815;48.386;11.738;2023-02-17T06:17:20;97273.53;;;8.19;70.38
48041;BME280;33815;48.386;11.738;2023-02-17T06:19:45;97251.59;;;8.12;70.22
48041;BME280;33815;48.386;11.738;2023-02-17T06:22:10;97274.59;;;8.17;70.64
48041;BME280;33815;48.386;11.738;2023-02-17T06:24:36;97271.06;;;8.29;71.15
48041;BME280;33815;48.386;11.738;2023-02-17T06:27:01;97268.47;;;8.29;70.65
48041;BME280;33815;48.386;11.738;2023-02-17T06:29:26;97272.09;;;8.38;70.70
48041;BME280;33815;48.386;11.738;2023-02-17T06:31:52;97247.19;;;8.24;71.69
48041;BME280;33815;48.386;11.738;2023-02-17T06:34:18;97275.91;;;8.45;72.94
48041;BME280;33815;48.386;11.738;2023-02-17T06:36:43;97274.97;;;8.46;73.16
48041;BME280;33815;48.386;11.738;2023-02-17T06:39:09;97263.50;;;8.37;74.62
48041;BME280;33815;48.386;11.738;2023-02-17T06:41:34;97274.97;;;8.46;74.68
48041;BME280;33815;48.386;11.738;2023-02-17T06:43:59;97253.81;;;8.28;75.09
48041;BME280;33815;48.386;11.738;2023-02-17T06:46:25;97257.59;;;8.24;75.53
48041;BME280;33815;48.386;11.738;2023-02-17T06:48:50;97277.31;;;8.27;77.08
48041;BME280;33815;48.386;11.738;2023-02-17T06:51:15;97281.31;;;8.42;75.90
48041;BME280;33815;48.386;11.738;2023-02-17T06:53:40;97270.56;;;8.24;76.87
48041;BME280;33815;48.386;11.738;2023-02-17T06:56:06;97282.97;;;8.32;76.96
48041;BME280;33815;48.386;11.738;2023-02-17T06:58:31;97277.78;;;8.32;77.60
48041;BME280;33815;48.386;11.738;2023-02-17T07:00:59;97273.88;;;8.37;77.27
48041;BME280;33815;48.386;11.738;2023-02-17T07:03:24;97273.66;;;8.40;77.20
48041;BME280;33815;48.386;11.738;2023-02-17T07:05:49;97263.50;;;8.37;77.46
48041;BME280;33815;48.386;11.738;2023-02-17T07:08:15;97254.63;;;8.29;77.67
48041;BME280;33815;48.386;11.738;2023-02-17T07:10:41;97276.25;;;8.40;77.58
48041;BME280;33815;48.386;11.738;2023-02-17T07:13:07;97269.53;;;8.49;77.93
48041;BME280;33815;48.386;11.738;2023-02-17T07:15:32;97273.19;;;8.47;76.66
48041;BME280;33815;48.386;11.738;2023-02-17T07:17:57;97279.78;;;8.62;76.70
48041;BME280;33815;48.386;11.738;2023-02-17T07:20:23;97266.25;;;8.47;76.13
48041;BME280;33815;48.386;11.738;2023-02-17T07:22:48;97263.97;;;8.54;76.45
48041;BME280;33815;48.386;11.738;2023-02-17T07:25:13;97277.19;;;8.62;76.14
48041;BME280;33815;48.386;11.738;2023-02-17T07:27:38;97289.47;;;8.71;76.08
48041;BME280;33815;48.386;11.738;2023-02-17T07:30:04;97264.19;;;8.62;75.07
48041;BME280;33815;48.386;11.738;2023-02-17T07:32:30;97277.16;;;8.73;74.90
48041;BME280;33815;48.386;11.738;2023-02-17T07:34:56;97279.97;;;8.82;74.47
48041;BME280;33815;48.386;11.738;2023-02-17T07:37:21;97274.31;;;8.88;74.42
48041;BME280;33815;48.386;11.738;2023-02-17T07:39:47;97277.47;;;8.91;74.35
48041;BME280;33815;48.386;11.738;2023-02-17T07:42:13;97267.78;;;8.94;74.44
48041;BME280;33815;48.386;11.738;2023-02-17T07:44:38;97275.69;;;9.03;74.14
48041;BME280;33815;48.386;11.738;2023-02-17T07:47:03;97284.97;;;9.06;72.95
48041;BME280;33815;48.386;11.738;2023-02-17T07:49:29;97288.56;;;9.05;73.08
48041;BME280;33815;48.386;11.738;2023-02-17T07:51:54;97290.31;;;9.04;73.78
48041;BME280;33815;48.386;11.738;2023-02-17T07:54:19;97275.59;;;8.94;73.52
48041;BME280;33815;48.386;11.738;2023-02-17T07:56:45;97297.53;;;9.01;73.65
48041;BME280;33815;48.386;11.738;2023-02-17T07:59:11;97279.78;;;9.06;74.03
48041;BME280;33815;48.386;11.738;2023-02-17T08:01:37;97272.16;;;8.93;73.76
48041;BME280;33815;48.386;11.738;2023-02-17T08:04:03;97282.88;;;9.00;74.11
48041;BME280;33815;48.386;11.738;2023-02-17T08:06:28;97287.28;;;8.99;74.45
48041;BME280;33815;48.386;11.738;2023-02-17T08:08:53;97274.97;;;9.01;73.91
48041;BME280;33815;48.386;11.738;2023-02-17T08:11:38;97287.31;;;9.20;74.26
48041;BME280;33815;48.386;11.738;2023-02-17T08:14:25;97268.06;;;9.12;74.92
48041;BME280;33815;48.386;11.738;2023-02-17T08:16:51;97280.81;;;9.47;73.89
48041;BME280;33815;48.386;11.738;2023-02-17T08:19:17;97272.88;;;9.49;72.59
48041;BME280;33815;48.386;11.738;2023-02-17T08:21:42;97275.94;;;9.54;71.52
48041;BME280;33815;48.386;11.738;2023-02-17T08:24:08;97286.09;;;9.78;71.10
48041;BME280;33815;48.386;11.738;2023-02-17T08:26:34;97297.75;;;9.84;70.87
48041;BME280;33815;48.386;11.738;2023-02-17T08:28:59;97274.56;;;10.02;70.35
48041;BME280;33815;48.386;11.738;2023-02-17T08:31:30;97278.97;;;10.11;69.57
48041;BME280;33815;48.386;11.738;2023-02-17T08:33:56;97280.41;;;10.25;69.76
48041;BME280;33815;48.386;11.738;2023-02-17T08:36:24;97273.91;;;10.40;68.00
48041;BME280;33815;48.386;11.738;2023-02-17T08:38:51;97285.25;;;10.60;68.20
48041;BME280;33815;48.386;11.738;2023-02-17T08:41:29;97289.31;;;10.53;68.57
48041;BME280;33815;48.386;11.738;2023-02-17T08:43:57;97301.53;;;10.53;68.87
48041;BME280;33815;48.386;11.738;2023-02-17T08:46:23;97294.56;;;10.32;69.19
48041;BME280;33815;48.386;11.738;2023-02-17T08:48:48;97279.75;;;10.23;70.11
48041;BME280;33815;48.386;11.738;2023-02-17T08:51:16;97298.09;;;10.21;69.96
48041;BME280;33815;48.386;11.738;2023-02-17T08:53:42;97301.66;;;10.20;70.50
48041;BME280;33815;48.386;11.738;2023-02-17T08:56:07;97288.13;;;10.05;69.49
48041;BME280;33815;48.386;11.738;2023-02-17T08:58:33;97304.22;;;10.10;70.87
48041;BME280;33815;48.386;11.738;2023-02-17T09:00:58;97307.00;;;10.19;70.85
48041;BME280;33815;48.386;11.738;2023-02-17T09:03:24;97315.19;;;10.14;70.56
48041;BME280;33815;48.386;11.738;2023-02-17T09:05:53;97308.28;;;10.03;70.28
48041;BME280;33815;48.386;11.738;2023-02-17T09:08:18;97307.50;;;10.12;70.40
48041;BME280;33815;48.386;11.738;2023-02-17T09:10:43;97306.94;;;10.09;71.23
48041;BME280;33815;48.386;11.738;2023-02-17T09:13:09;97306.28;;;10.17;71.51
48041;BME280;33815;48.386;11.738;2023-02-17T09:15:34;97317.69;;;10.16;73.15
48041;BME280;33815;48.386;11.738;2023-02-17T09:17:59;97315.50;;;10.21;73.36
48041;BME280;33815;48.386;11.738;2023-02-17T09:20:25;97314.28;;;10.25;74.13
48041;BME280;33815;48.386;11.738;2023-02-17T09:22:51;97319.63;;;10.44;74.74
48041;BME280;33815;48.386;11.738;2023-02-17T09:25:16;97324.31;;;10.51;73.77
48041;BME280;33815;48.386;11.738;2023-02-17T09:27:42;97313.41;;;10.36;74.86
48041;BME280;33815;48.386;11.738;2023-02-17T09:30:07;97304.25;;;10.20;74.57
48041;BME280;33815;48.386;11.738;2023-02-17T09:32:33;97325.72;;;10.12;75.27
48041;BME280;33815;48.386;11.738;2023-02-17T09:34:58;97321.13;;;9.95;75.22
48041;BME280;33815;48.386;11.738;2023-02-17T09:37:25;97322.34;;;9.91;76.25
48041;BME280;33815;48.386;11.738;2023-02-17T09:39:51;97336.00;;;10.04;75.68
48041;BME280;33815;48.386;11.738;2023-02-17T09:42:19;97327.78;;;10.09;75.31
48041;BME280;33815;48.386;11.738;2023-02-17T09:44:48;97334.34;;;10.03;75.43
48041;BME280;33815;48.386;11.738;2023-02-17T09:47:20;97316.78;;;10.05;74.93
48041;BME280;33815;48.386;11.738;2023-02-17T09:49:53;97320.53;;;10.12;75.39
48041;BME280;33815;48.386;11.738;2023-02-17T09:52:54;97312.53;;;10.25;74.94
48041;BME280;33815;48.386;11.738;2023-02-17T09:55:25;97314.13;;;10.48;74.92
48041;BME280;33815;48.386;11.738;2023-02-17T09:58:06;97299.66;;;10.74;72.74
48041;BME280;33815;48.386;11.738;2023-02-17T10:00:44;97311.66;;;10.96;72.34
48041;BME280;33815;48.386;11.738;2023-02-17T10:03:24;97299.50;;;11.36;71.00
48041;BME280;33815;48.386;11.738;2023-02-17T10:06:06;97298.00;;;11.43;71.01
48041;BME280;33815;48.386;11.738;2023-02-17T10:08:41;97310.47;;;11.69;68.71
48041;BME280;33815;48.386;11.738;2023-02-17T10:11:29;97300.84;;;11.60;68.78
48041;BME280;33815;48.386;11.738;2023-02-17T10:16:47;97307.84;;;11.69;66.70
48041;BME280;33815;48.386;11.738;2023-02-17T10:19:35;97310.53;;;12.16;66.20
48041;BME280;33815;48.386;11.738;2023-02-17T10:22:11;97295.53;;;12.19;65.37
48041;BME280;33815;48.386;11.738;2023-02-17T10:24:38;97294.00;;;12.26;64.07
48041;BME280;33815;48.386;11.738;2023-02-17T10:27:17;97282.97;;;12.32;64.51
48041;BME280;33815;48.386;11.738;2023-02-17T10:32:41;97285.47;;;12.61;62.32
48041;BME280;33815;48.386;11.738;2023-02-17T10:35:16;97283.00;;;12.60;61.71
48041;BME280;33815;48.386;11.738;2023-02-17T10:37:45;97289.81;;;12.71;61.51
48041;BME280;33815;48.386;11.738;2023-02-17T10:40:30;97281.34;;;13.23;62.85
48041;BME280;33815;48.386;11.738;2023-02-17T10:42:59;97271.03;;;13.39;59.89
48041;BME280;33815;48.386;11.738;2023-02-17T10:45:37;97255.94;;;13.51;58.10
48041;BME280;33815;48.386;11.738;2023-02-17T10:48:08;97277.13;;;13.84;58.74
48041;BME280;33815;48.386;11.738;2023-02-17T10:50:36;97246.41;;;13.32;58.80
48041;BME280;33815;48.386;11.738;2023-02-17T10:53:14;97286.41;;;13.78;58.95
48041;BME280;33815;48.386;11.738;2023-02-17T10:58:32;97277.75;;;13.06;59.58
48041;BME280;33815;48.386;11.738;2023-02-17T11:00:59;97275.03;;;12.79;59.90
48041;BME280;33815;48.386;11.738;2023-02-17T11:03:28;97282.09;;;12.97;60.36
48041;BME280;33815;48.386;11.738;2023-02-17T11:05:59;97260.97;;;12.80;60.76
48041;BME280;33815;48.386;11.738;2023-02-17T11:08:44;97267.19;;;12.97;60.60
48041;BME280;33815;48.386;11.738;2023-02-17T11:11:16;97272.66;;;13.04;60.45
48041;BME280;33815;48.386;11.738;2023-02-17T11:14:02;97273.78;;;12.83;61.16
48041;BME280;33815;48.386;11.738;2023-02-17T11:16:32;97270.81;;;13.14;60.86
48041;BME280;33815;48.386;11.738;2023-02-17T11:18:57;97254.44;;;13.12;60.50
48041;BME280;33815;48.386;11.738;2023-02-17T11:21:23;97269.41;;;13.20;60.93
48041;BME280;33815;48.386;11.738;2023-02-17T11:24:00;97244.84;;;13.03;61.22
48041;BME280;33815;48.386;11.738;2023-02-17T11:26:28;97252.63;;;13.13;61.37
48041;BME280;33815;48.386;11.738;2023-02-17T11:29:05;97241.94;;;13.06;61.27
48041;BME280;33815;48.386;11.738;2023-02-17T11:31:30;97248.97;;;13.06;60.93
48041;BME280;33815;48.386;11.738;2023-02-17T11:33:56;97238.28;;;12.99;61.65
48041;BME280;33815;48.386;11.738;2023-02-17T11:36:30;97234.03;;;13.16;61.69
48041;BME280;33815;48.386;11.738;2023-02-17T11:38:56;97205.31;;;13.06;61.09
48041;BME280;33815;48.386;11.738;2023-02-17T11:41:24;97228.84;;;13.42;60.74
48041;BME280;33815;48.386;11.738;2023-02-17T11:43:57;97217.78;;;13.12;60.10
48041;BME280;33815;48.386;11.738;2023-02-17T11:46:31;97213.66;;;13.10;61.11
48041;BME280;33815;48.386;11.738;2023-02-17T12:00:44;97210.31;;;13.35;61.27
48041;BME280;33815;48.386;11.738;2023-02-17T12:06:42;97193.72;;;13.09;61.17
48041;BME280;33815;48.386;11.738;2023-02-17T12:09:18;97210.47;;;13.16;62.24
48041;BME280;33815;48.386;11.738;2023-02-17T12:17:54;97201.03;;;13.05;62.21
48041;BME280;33815;48.386;11.738;2023-02-17T12:20:37;97197.09;;;13.01;62.41
48041;BME280;33815;48.386;11.738;2023-02-17T12:23:23;97199.09;;;13.07;61.84
48041;BME280;33815;48.386;11.738;2023-02-17T12:34:33;97192.56;;;13.11;65.81
48041;BME280;33815;48.386;11.738;2023-02-17T12:37:01;97206.50;;;12.94;64.32
48041;BME280;33815;48.386;11.738;2023-02-17T12:39:37;97199.53;;;13.02;65.05
48041;BME280;33815;48.386;11.738;2023-02-17T12:42:12;97202.31;;;13.01;64.13
48041;BME280;33815;48.386;11.738;2023-02-17T12:44:43;97203.56;;;13.15;63.57
48041;BME280;33815;48.386;11.738;2023-02-17T12:47:31;97216.13;;;13.11;63.92
48041;BME280;33815;48.386;11.738;2023-02-17T12:50:14;97211.44;;;13.15;64.97
48041;BME280;33815;48.386;11.738;2023-02-17T12:52:45;97204.63;;;13.40;62.95
48041;BME280;33815;48.386;11.738;2023-02-17T12:55:19;97198.03;;;13.18;64.04
48041;BME280;33815;48.386;11.738;2023-02-17T12:58:02;97185.41;;;13.13;63.95
48041;BME280;33815;48.386;11.738;2023-02-17T13:00:37;97201.13;;;13.13;65.03
48041;BME280;33815;48.386;11.738;2023-02-17T13:03:04;97196.94;;;13.02;64.83
48041;BME280;33815;48.386;11.738;2023-02-17T13:05:38;97206.50;;;12.94;65.00
48041;BME280;33815;48.386;11.738;2023-02-17T13:08:09;97206.94;;;12.71;65.43
48041;BME280;33815;48.386;11.738;2023-02-17T13:10:39;97202.50;;;12.54;66.54
48041;BME280;33815;48.386;11.738;2023-02-17T13:15:37;97198.75;;;12.38;67.03
48041;BME280;33815;48.386;11.738;2023-02-17T13:18:09;97213.63;;;12.38;66.88
48041;BME280;33815;48.386;11.738;2023-02-17T13:23:40;97193.63;;;12.19;67.93
48041;BME280;33815;48.386;11.738;2023-02-17T13:28:46;97209.88;;;12.12;69.06
48041;BME280;33815;48.386;11.738;2023-02-17T13:31:25;97194.22;;;12.12;68.63
48041;BME280;33815;48.386;11.738;2023-02-17T13:36:34;97200.91;;;12.25;69.46
48041;BME280;33815;48.386;11.738;2023-02-17T13:39:28;97197.78;;;12.39;69.30
48041;BME280;33815;48.386;11.738;2023-02-17T13:41:48;97190.34;;;12.16;69.67
48041;BME280;33815;48.386;11.738;2023-02-17T13:44:39;97189.53;;;12.06;70.68
48041;BME280;33815;48.386;11.738;2023-02-17T13:47:21;97204.47;;;12.24;71.34
48041;BME280;33815;48.386;11.738;2023-02-17T13:49:54;97199.25;;;12.24;71.29
48041;BME280;33815;48.386;11.738;2023-02-17T13:52:23;97200.94;;;12.15;71.39
48041;BME280;33815;48.386;11.738;2023-02-17T13:54:56;97199.03;;;12.07;71.54
48041;BME280;33815;48.386;11.738;2023-02-17T13:57:34;97206.09;;;11.97;72.33
48041;BME280;33815;48.386;11.738;2023-02-17T14:02:36;97210.09;;;11.81;74.43
48041;BME280;33815;48.386;11.738;2023-02-17T14:05:17;97211.06;;;11.80;74.49
48041;BME280;33815;48.386;11.738;2023-02-17T14:07:44;97214.22;;;11.84;75.18
48041;BME280;33815;48.386;11.738;2023-02-17T14:10:23;97199.25;;;11.76;76.64
48041;BME280;33815;48.386;11.738;2023-02-17T14:12:49;97209.41;;;11.79;76.81
48041;BME280;33815;48.386;11.738;2023-02-17T14:15:17;97210.28;;;11.70;77.06